AAL1658 KDFW-KLAX
Flight info
| Callsign | AAL1658 |
|---|---|
| Flight time | N/A |
| Altitude | 34000 |
| Route | KATZZ2 BRHMA CNX ONM SJN DRK J231 HIPPI GABBL HLYWD1 |
| Aircraft | A321/M-SDE3FGHIRWY/LB1 |
Departure
| Time | N/A |
|---|---|
| Airport | Dallas Fort Worth International Airport (KDFW) |
Arrival
| Time | 2026-04-24 04:29 |
|---|---|
| Airport | Los Angeles International Airport (KLAX) |
| Time | Latitude | Longitude | Altitude | Speed | Heading |
|---|---|---|---|---|---|
| 2026-04-24 04:05 | 34.12674 | -116.07294 | 34017 ft | 387 kts | 263° |
| 2026-04-24 04:05 | 34.12357 | -116.10519 | 34018 ft | 387 kts | 263° |
| 2026-04-24 04:06 | 34.11821 | -116.15938 | 34019 ft | 388 kts | 263° |
| 2026-04-24 04:06 | 34.11162 | -116.22509 | 34003 ft | 399 kts | 263° |
| 2026-04-24 04:06 | 34.10827 | -116.25834 | 33823 ft | 398 kts | 263° |
| 2026-04-24 04:07 | 34.10497 | -116.29135 | 33104 ft | 397 kts | 263° |
| 2026-04-24 04:07 | 34.10163 | -116.32479 | 32049 ft | 403 kts | 263° |
| 2026-04-24 04:07 | 34.09812 | -116.35826 | 31125 ft | 402 kts | 263° |
| 2026-04-24 04:07 | 34.09455 | -116.39139 | 30689 ft | 395 kts | 263° |
| 2026-04-24 04:08 | 34.09100 | -116.42398 | 30255 ft | 389 kts | 263° |
| 2026-04-24 04:08 | 34.08752 | -116.45608 | 29793 ft | 382 kts | 263° |
| 2026-04-24 04:08 | 34.08415 | -116.48713 | 29355 ft | 375 kts | 263° |
| 2026-04-24 04:08 | 34.08080 | -116.51804 | 28948 ft | 369 kts | 263° |
| 2026-04-24 04:09 | 34.07750 | -116.54852 | 28534 ft | 365 kts | 263° |
| 2026-04-24 04:09 | 34.07422 | -116.57875 | 28127 ft | 362 kts | 263° |
| 2026-04-24 04:09 | 34.07103 | -116.60883 | 27720 ft | 359 kts | 264° |
| 2026-04-24 04:09 | 34.06817 | -116.63864 | 27336 ft | 357 kts | 264° |
| 2026-04-24 04:10 | 34.06554 | -116.66831 | 26930 ft | 355 kts | 265° |
| 2026-04-24 04:10 | 34.06302 | -116.69787 | 26527 ft | 353 kts | 265° |
| 2026-04-24 04:10 | 34.06049 | -116.72721 | 26131 ft | 351 kts | 265° |
| 2026-04-24 04:11 | 34.05510 | -116.78546 | 25363 ft | 348 kts | 264° |
| 2026-04-24 04:11 | 34.05231 | -116.81438 | 24981 ft | 346 kts | 264° |
| 2026-04-24 04:11 | 34.04953 | -116.84313 | 24602 ft | 344 kts | 264° |
| 2026-04-24 04:11 | 34.04679 | -116.87172 | 24238 ft | 342 kts | 264° |
| 2026-04-24 04:12 | 34.04395 | -116.90028 | 23861 ft | 342 kts | 263° |
| 2026-04-24 04:12 | 34.04058 | -116.92863 | 23494 ft | 341 kts | 262° |
| 2026-04-24 04:12 | 34.03688 | -116.95680 | 23060 ft | 339 kts | 262° |
| 2026-04-24 04:12 | 34.03307 | -116.98471 | 22632 ft | 337 kts | 262° |
| 2026-04-24 04:13 | 34.02776 | -117.01241 | 22201 ft | 346 kts | 251° |
| 2026-04-24 04:13 | 34.01836 | -117.03893 | 21716 ft | 338 kts | 253° |
| 2026-04-24 04:13 | 34.01347 | -117.06618 | 20961 ft | 330 kts | 265° |
| 2026-04-24 04:13 | 34.01219 | -117.09352 | 20447 ft | 324 kts | 269° |
| 2026-04-24 04:14 | 34.01178 | -117.12044 | 20049 ft | 318 kts | 269° |
| 2026-04-24 04:14 | 34.01094 | -117.14647 | 19670 ft | 312 kts | 267° |
| 2026-04-24 04:14 | 34.00929 | -117.17235 | 19288 ft | 307 kts | 265° |
| 2026-04-24 04:14 | 34.00698 | -117.19773 | 18956 ft | 302 kts | 264° |
| 2026-04-24 04:15 | 34.00426 | -117.22270 | 18541 ft | 299 kts | 263° |
| 2026-04-24 04:15 | 34.00131 | -117.24741 | 18101 ft | 297 kts | 262° |
| 2026-04-24 04:15 | 33.99830 | -117.27182 | 17670 ft | 292 kts | 262° |
| 2026-04-24 04:15 | 33.99534 | -117.29577 | 17399 ft | 284 kts | 262° |
| 2026-04-24 04:16 | 33.99245 | -117.31928 | 16952 ft | 286 kts | 263° |
| 2026-04-24 04:16 | 33.98957 | -117.34336 | 16327 ft | 291 kts | 263° |
| 2026-04-24 04:16 | 33.98672 | -117.36743 | 15895 ft | 288 kts | 263° |
| 2026-04-24 04:16 | 33.98392 | -117.39115 | 15525 ft | 283 kts | 263° |
| 2026-04-24 04:17 | 33.98115 | -117.41447 | 15173 ft | 280 kts | 263° |
| 2026-04-24 04:17 | 33.97841 | -117.43766 | 14819 ft | 279 kts | 263° |
| 2026-04-24 04:17 | 33.97569 | -117.46072 | 14466 ft | 278 kts | 263° |
| 2026-04-24 04:17 | 33.97299 | -117.48373 | 14110 ft | 277 kts | 264° |
| 2026-04-24 04:18 | 33.97208 | -117.50706 | 13698 ft | 287 kts | 269° |
| 2026-04-24 04:18 | 33.97173 | -117.53158 | 13228 ft | 296 kts | 269° |
| 2026-04-24 04:18 | 33.97137 | -117.55623 | 12752 ft | 297 kts | 269° |
| 2026-04-24 04:18 | 33.97097 | -117.58117 | 12293 ft | 299 kts | 269° |
| 2026-04-24 04:19 | 33.97055 | -117.60625 | 11850 ft | 299 kts | 269° |
| 2026-04-24 04:19 | 33.97011 | -117.63121 | 11401 ft | 298 kts | 269° |
| 2026-04-24 04:19 | 33.96967 | -117.65618 | 10956 ft | 297 kts | 269° |
| 2026-04-24 04:19 | 33.96923 | -117.68108 | 10502 ft | 296 kts | 269° |
| 2026-04-24 04:20 | 33.96879 | -117.70588 | 10109 ft | 293 kts | 269° |
| 2026-04-24 04:20 | 33.96837 | -117.72991 | 9913 ft | 283 kts | 269° |
| 2026-04-24 04:20 | 33.96796 | -117.75333 | 9712 ft | 277 kts | 269° |
| 2026-04-24 04:20 | 33.96755 | -117.77660 | 9388 ft | 278 kts | 269° |
| 2026-04-24 04:21 | 33.96713 | -117.79989 | 8966 ft | 278 kts | 269° |
| 2026-04-24 04:21 | 33.96668 | -117.82287 | 8507 ft | 278 kts | 269° |
| 2026-04-24 04:21 | 33.96621 | -117.84656 | 8034 ft | 279 kts | 269° |
| 2026-04-24 04:21 | 33.96575 | -117.86968 | 7556 ft | 280 kts | 269° |
| 2026-04-24 04:22 | 33.96530 | -117.89345 | 7120 ft | 280 kts | 269° |
| 2026-04-24 04:22 | 33.96485 | -117.91670 | 6672 ft | 280 kts | 269° |
| 2026-04-24 04:22 | 33.96437 | -117.94028 | 6247 ft | 280 kts | 269° |
| 2026-04-24 04:22 | 33.96388 | -117.96379 | 5815 ft | 279 kts | 269° |
| 2026-04-24 04:23 | 33.96342 | -117.98701 | 5462 ft | 276 kts | 269° |
| 2026-04-24 04:23 | 33.96295 | -118.01004 | 5097 ft | 273 kts | 269° |
| 2026-04-24 04:23 | 33.96247 | -118.03262 | 5010 ft | 267 kts | 269° |
| 2026-04-24 04:23 | 33.96200 | -118.05441 | 5012 ft | 252 kts | 269° |
| 2026-04-24 04:24 | 33.96157 | -118.07476 | 5013 ft | 235 kts | 270° |
| 2026-04-24 04:24 | 33.96115 | -118.09391 | 5015 ft | 226 kts | 269° |
| 2026-04-24 04:24 | 33.96074 | -118.11269 | 4825 ft | 230 kts | 270° |
| 2026-04-24 04:24 | 33.96087 | -118.13230 | 4240 ft | 235 kts | 272° |
| 2026-04-24 04:25 | 33.96044 | -118.15178 | 3856 ft | 229 kts | 266° |
| 2026-04-24 04:25 | 33.95883 | -118.17030 | 3550 ft | 215 kts | 264° |
| 2026-04-24 04:25 | 33.95709 | -118.18754 | 3293 ft | 203 kts | 264° |
| 2026-04-24 04:25 | 33.95539 | -118.20433 | 3018 ft | 201 kts | 264° |
| 2026-04-24 04:26 | 33.95372 | -118.22096 | 2754 ft | 199 kts | 263° |
| 2026-04-24 04:26 | 33.95205 | -118.23753 | 2494 ft | 199 kts | 263° |
| 2026-04-24 04:26 | 33.95039 | -118.25405 | 2232 ft | 196 kts | 263° |
| 2026-04-24 04:26 | 33.94883 | -118.26948 | 1986 ft | 180 kts | 263° |
| 2026-04-24 04:27 | 33.94738 | -118.28386 | 1752 ft | 166 kts | 263° |
| 2026-04-24 04:27 | 33.94606 | -118.29694 | 1544 ft | 151 kts | 262° |
| 2026-04-24 04:27 | 33.94484 | -118.30897 | 1342 ft | 140 kts | 262° |
| 2026-04-24 04:27 | 33.94368 | -118.32047 | 1160 ft | 137 kts | 261° |
| 2026-04-24 04:28 | 33.94252 | -118.33175 | 986 ft | 135 kts | 260° |
| 2026-04-24 04:28 | 33.94135 | -118.34292 | 813 ft | 133 kts | 262° |
| 2026-04-24 04:28 | 33.94020 | -118.35400 | 640 ft | 134 kts | 262° |
| 2026-04-24 04:28 | 33.93911 | -118.36519 | 433 ft | 134 kts | 262° |
| 2026-04-24 04:29 | 33.93793 | -118.37627 | 243 ft | 133 kts | 261° |
| 2026-04-24 04:29 | 33.93689 | -118.38712 | 99 ft | 128 kts | 260° |
| 2026-04-24 04:29 | 33.93604 | -118.39589 | 96 ft | 78 kts | 263° |
| 2026-04-24 04:29 | 33.93570 | -118.39907 | 95 ft | 21 kts | 263° |
| 2026-04-24 04:30 | 33.93573 | -118.40177 | 96 ft | 22 kts | 280° |
| 2026-04-24 04:30 | 33.93599 | -118.40282 | 97 ft | 1 kts | 291° |
| 2026-04-24 04:30 | 33.93604 | -118.40296 | 95 ft | 3 kts | 291° |
| 2026-04-24 04:30 | 33.93619 | -118.40344 | 97 ft | 9 kts | 290° |
| 2026-04-24 04:31 | 33.93627 | -118.40440 | 95 ft | 14 kts | 266° |
| 2026-04-24 04:31 | 33.93624 | -118.40470 | 96 ft | 16 kts | 262° |
| 2026-04-24 04:31 | 33.93610 | -118.40602 | 98 ft | 21 kts | 263° |
| 2026-04-24 04:31 | 33.93594 | -118.40759 | 96 ft | 16 kts | 267° |
| 2026-04-24 04:32 | 33.93631 | -118.40884 | 96 ft | 17 kts | 322° |
| 2026-04-24 04:32 | 33.93746 | -118.40907 | 95 ft | 18 kts | 353° |
| 2026-04-24 04:32 | 33.93838 | -118.40919 | 96 ft | 12 kts | 2° |
| 2026-04-24 04:32 | 33.93880 | -118.40838 | 93 ft | 13 kts | 69° |
| 2026-04-24 04:33 | 33.93949 | -118.40813 | 95 ft | 12 kts | 350° |
| 2026-04-24 04:33 | 33.94006 | -118.40778 | 93 ft | 9 kts | 72° |
| 2026-04-24 04:33 | 33.94013 | -118.40755 | 93 ft | 1 kts | 70° |
| 2026-04-24 04:33 | 33.94015 | -118.40748 | 95 ft | 0 kts | 71° |
| 2026-04-24 04:35 | 33.95641 | -118.19417 | 3191 ft | 202 kts | 264° |